Time;durP1;ratioP1;P1;durP2;ratioP2;P2;SDS_P1;SDS_P2;PMS_P1;PMS_P2;Temp;Humidity;BMP_temperature;BMP_pressure;BME280_temperature;BME280_humidity;BME280_pressure;Samples;Min_cycle;Max_cycle;Signal;HPM_P1;HPM_P2
2021/12/31 00:00:05;;;;;;;;;;;;;;;;;;5325846;28;19947;-68
2021/12/31 00:02:36;;;;;;;;;;;;;;;;;;5325211;28;19910;-68
2021/12/31 00:05:07;;;;;;;;;;;;;;;;;;5325027;28;19903;-67
2021/12/31 00:07:39;;;;;;;;;;;;;;;;;;5325433;28;19912;-68
2021/12/31 00:10:10;;;;;;;;;;;;;;;;;;5325438;28;20002;-68
2021/12/31 00:12:42;;;;;;;;;;;;;;;;;;5325412;28;19904;-68
2021/12/31 00:15:13;;;;;;;;;;;;;;;;;;5326001;28;20361;-69
2021/12/31 00:17:46;;;;;;;;;;;;;;;;;;5324516;28;19911;-68
2021/12/31 00:20:20;;;;;;;;;;;;;;;;;;5325799;28;19911;-68
2021/12/31 00:23:04;;;;;;;;;;;;;;;;;;5324684;28;19911;-68
2021/12/31 00:25:35;;;;;;;;;;;;;;;;;;5325875;28;20317;-68
2021/12/31 00:28:06;;;;;;;;;;;;;;;;;;5325016;28;19903;-68
2021/12/31 00:30:37;;;;;;;;;;;;;;;;;;5324363;28;19903;-69
2021/12/31 00:33:09;;;;;;;;;;;;;;;;;;5325460;28;19908;-68
2021/12/31 00:35:40;;;;;;;;;;;;;;;;;;5324977;28;19956;-68
2021/12/31 00:38:11;;;;;;;;;;;;;;;;;;5324677;28;19911;-67
2021/12/31 00:40:42;;;;;;;;;;;;;;;;;;5324647;28;19904;-67
2021/12/31 00:43:13;;;;;;;;;;;;;;;;;;5325228;28;19911;-67
2021/12/31 00:45:44;;;;;;;;;;;;;;;;;;5323842;28;19903;-67
2021/12/31 00:48:15;;;;;;;;;;;;;;;;;;5324849;28;20385;-68
2021/12/31 00:50:46;;;;;;;;;;;;;;;;;;5323669;28;19903;-68
2021/12/31 00:53:17;;;;;;;;;;;;;;;;;;5324971;28;20279;-68
2021/12/31 00:55:48;;;;;;;;;;;;;;;;;;5324618;28;19983;-69
2021/12/31 00:58:19;;;;;;;;;;;;;;;;;;5324223;28;20002;-66
2021/12/31 01:00:51;;;;;;;;;;;;;;;;;;5324337;28;20369;-67
2021/12/31 01:03:22;;;;;;;;;;;;;;;;;;5325249;28;19904;-68
2021/12/31 01:05:53;;;;;;;;;;;;;;;;;;5323706;28;19911;-68
2021/12/31 01:08:24;;;;;;;;;;;;;;;;;;5324847;28;20371;-68
2021/12/31 01:10:55;;;;;;;;;;;;;;;;;;5324476;28;19904;-68
2021/12/31 01:13:34;;;;;;;;;;;;;;;;;;5324239;28;19903;-68
2021/12/31 01:16:06;;;;;;;;;;;;;;;;;;5324228;28;19926;-68
2021/12/31 01:21:23;;;;;;;;;;;;;;;;;;5325148;28;19904;-68
2021/12/31 01:23:57;;;;;;;;;;;;;;;;;;5324283;28;19924;-68
2021/12/31 01:26:30;;;;;;;;;;;;;;;;;;5324068;28;20293;-66
2021/12/31 01:29:01;;;;;;;;;;;;;;;;;;5324223;28;19904;-67
2021/12/31 01:31:33;;;;;;;;;;;;;;;;;;5324746;28;19910;-67
2021/12/31 01:34:04;;;;;;;;;;;;;;;;;;5323580;28;20274;-66
2021/12/31 01:36:35;;;;;;;;;;;;;;;;;;5324705;28;19910;-67
2021/12/31 01:39:06;;;;;;;;;;;;;;;;;;5323817;28;20355;-67
2021/12/31 01:41:37;;;;;;;;;;;;;;;;;;5323331;28;20359;-68
2021/12/31 01:44:08;;;;;;;;;;;;;;;;;;5324784;28;20119;-67
2021/12/31 01:46:41;;;;;;;;;;;;;;;;;;5323965;28;19908;-67
2021/12/31 01:49:20;;;;;;;;;;;;;;;;;;5323699;28;19973;-67
2021/12/31 01:51:51;;;;;;;;;;;;;;;;;;5323861;28;19903;-67
2021/12/31 01:54:22;;;;;;;;;;;;;;;;;;5323935;28;19915;-67
2021/12/31 01:56:53;;;;;;;;;;;;;;;;;;5323964;28;20367;-67
2021/12/31 01:59:24;;;;;;;;;;;;;;;;;;5324440;28;19908;-68
2021/12/31 02:01:55;;;;;;;;;;;;;;;;;;5323151;28;19908;-67
2021/12/31 02:04:26;;;;;;;;;;;;;;;;;;5324288;28;20338;-67
2021/12/31 02:06:57;;;;;;;;;;;;;;;;;;5323949;28;19907;-67
2021/12/31 02:09:32;;;;;;;;;;;;;;;;;;5323688;28;19908;-67
2021/12/31 02:12:03;;;;;;;;;;;;;;;;;;5323867;28;19904;-68
2021/12/31 02:14:34;;;;;;;;;;;;;;;;;;5324101;28;19904;-67
2021/12/31 02:17:07;;;;;;;;;;;;;;;;;;5323070;28;19905;-67
2021/12/31 02:19:39;;;;;;;;;;;;;;;;;;5324170;28;20002;-68
2021/12/31 02:22:10;;;;;;;;;;;;;;;;;;5323711;28;20346;-67
2021/12/31 02:24:42;;;;;;;;;;;;;;;;;;5323702;28;19910;-68
2021/12/31 02:27:13;;;;;;;;;;;;;;;;;;5325233;28;19953;-67
2021/12/31 02:29:44;;;;;;;;;;;;;;;;;;5326650;28;20374;-68
2021/12/31 02:32:15;;;;;;;;;;;;;;;;;;5328332;28;19904;-67
2021/12/31 02:34:46;;;;;;;;;;;;;;;;;;5327539;28;19904;-68
2021/12/31 02:37:17;;;;;;;;;;;;;;;;;;5327149;28;19966;-68
2021/12/31 02:39:48;;;;;;;;;;;;;;;;;;5327329;28;19939;-68
2021/12/31 02:42:19;;;;;;;;;;;;;;;;;;5328059;28;20002;-67
2021/12/31 02:44:51;;;;;;;;;;;;;;;;;;5326752;28;20274;-68
2021/12/31 02:47:22;;;;;;;;;;;;;;;;;;5327814;28;19910;-68
2021/12/31 02:49:54;;;;;;;;;;;;;;;;;;5327272;28;19912;-68
2021/12/31 02:52:25;;;;;;;;;;;;;;;;;;5327039;28;19904;-68
2021/12/31 02:54:56;;;;;;;;;;;;;;;;;;5327330;28;20006;-68
2021/12/31 02:57:27;;;;;;;;;;;;;;;;;;5327094;28;19915;-68
2021/12/31 02:59:58;;;;;;;;;;;;;;;;;;5327104;28;19907;-68
2021/12/31 03:02:29;;;;;;;;;;;;;;;;;;5327605;28;19947;-68
2021/12/31 03:05:01;;;;;;;;;;;;;;;;;;5326473;28;19903;-66
2021/12/31 03:07:32;;;;;;;;;;;;;;;;;;5327449;28;19903;-68
2021/12/31 03:10:03;;;;;;;;;;;;;;;;;;5327170;28;20037;-68
2021/12/31 03:12:34;;;;;;;;;;;;;;;;;;5326443;28;19910;-69
2021/12/31 03:15:05;;;;;;;;;;;;;;;;;;5326424;28;19904;-68
2021/12/31 03:17:36;;;;;;;;;;;;;;;;;;5326935;28;19907;-68
2021/12/31 03:20:11;;;;;;;;;;;;;;;;;;5326273;28;19934;-67
2021/12/31 03:22:42;;;;;;;;;;;;;;;;;;5326452;28;19996;-68
2021/12/31 03:25:13;;;;;;;;;;;;;;;;;;5327021;28;20360;-66
2021/12/31 03:27:44;;;;;;;;;;;;;;;;;;5325600;28;19908;-67
2021/12/31 03:30:17;;;;;;;;;;;;;;;;;;5327100;28;19960;-67
2021/12/31 03:32:48;;;;;;;;;;;;;;;;;;5325662;28;19939;-67
2021/12/31 03:35:19;;;;;;;;;;;;;;;;;;5327338;28;20325;-67
2021/12/31 03:37:51;;;;;;;;;;;;;;;;;;5326142;28;19918;-68
2021/12/31 03:40:22;;;;;;;;;;;;;;;;;;5326004;28;19911;-68
2021/12/31 03:42:53;;;;;;;;;;;;;;;;;;5326362;28;19992;-68
2021/12/31 03:45:24;;;;;;;;;;;;;;;;;;5326601;28;20369;-68
2021/12/31 03:47:55;;;;;;;;;;;;;;;;;;5325173;28;19923;-68
2021/12/31 03:50:26;;;;;;;;;;;;;;;;;;5326761;28;19935;-68
2021/12/31 03:52:57;;;;;;;;;;;;;;;;;;5326156;28;20345;-68
2021/12/31 03:55:28;;;;;;;;;;;;;;;;;;5326035;28;19989;-68
2021/12/31 03:57:59;;;;;;;;;;;;;;;;;;5325994;28;19922;-67
2021/12/31 04:00:30;;;;;;;;;;;;;;;;;;5326210;28;20423;-68
2021/12/31 04:03:01;;;;;;;;;;;;;;;;;;5325070;28;19949;-68
2021/12/31 04:05:33;;;;;;;;;;;;;;;;;;5326484;28;19911;-68
2021/12/31 04:08:04;;;;;;;;;;;;;;;;;;5325014;28;19948;-68
2021/12/31 04:10:35;;;;;;;;;;;;;;;;;;5326133;28;20326;-67
2021/12/31 04:13:06;;;;;;;;;;;;;;;;;;5325550;28;19910;-68
2021/12/31 04:15:37;;;;;;;;;;;;;;;;;;5324839;28;19953;-68
2021/12/31 04:18:08;;;;;;;;;;;;;;;;;;5326117;28;19947;-68
2021/12/31 04:20:42;;;;;;;;;;;;;;;;;;5325375;28;19908;-68
2021/12/31 04:23:31;;;;;;;;;;;;;;;;;;5325168;27;19907;-68
2021/12/31 04:26:02;;;;;;;;;;;;;;;;;;5325243;28;19998;-68
2021/12/31 04:28:33;;;;;;;;;;;;;;;;;;5326003;28;19990;-68
2021/12/31 04:31:04;;;;;;;;;;;;;;;;;;5324560;28;19904;-68
2021/12/31 04:33:35;;;;;;;;;;;;;;;;;;5325579;28;19904;-67
2021/12/31 04:36:07;;;;;;;;;;;;;;;;;;5324227;28;19904;-68
2021/12/31 04:38:38;;;;;;;;;;;;;;;;;;5324950;28;20351;-68
2021/12/31 04:41:09;;;;;;;;;;;;;;;;;;5325700;28;19912;-68
2021/12/31 04:43:40;;;;;;;;;;;;;;;;;;5324071;28;19908;-68
2021/12/31 04:46:11;;;;;;;;;;;;;;;;;;5325398;28;20345;-67
2021/12/31 04:48:42;;;;;;;;;;;;;;;;;;5324530;28;19919;-68
2021/12/31 04:51:13;;;;;;;;;;;;;;;;;;5324233;28;20048;-67
2021/12/31 04:53:44;;;;;;;;;;;;;;;;;;5324793;28;20395;-67
2021/12/31 04:56:15;;;;;;;;;;;;;;;;;;5325340;28;19998;-67
2021/12/31 04:58:46;;;;;;;;;;;;;;;;;;5323897;28;19912;-67
2021/12/31 05:01:21;;;;;;;;;;;;;;;;;;5325155;28;19994;-67
2021/12/31 05:03:52;;;;;;;;;;;;;;;;;;5324818;28;19926;-67
2021/12/31 05:06:23;;;;;;;;;;;;;;;;;;5324481;28;19908;-67
2021/12/31 05:08:54;;;;;;;;;;;;;;;;;;5324334;28;20335;-68
2021/12/31 05:11:25;;;;;;;;;;;;;;;;;;5324303;28;19951;-67
2021/12/31 05:13:56;;;;;;;;;;;;;;;;;;5324308;28;19969;-67
2021/12/31 05:16:27;;;;;;;;;;;;;;;;;;5325071;28;19911;-67
2021/12/31 05:18:58;;;;;;;;;;;;;;;;;;5323544;28;19962;-67
2021/12/31 05:21:30;;;;;;;;;;;;;;;;;;5324965;28;20007;-67
2021/12/31 05:24:01;;;;;;;;;;;;;;;;;;5324227;28;19958;-67
2021/12/31 05:26:32;;;;;;;;;;;;;;;;;;5323899;28;19908;-67
2021/12/31 05:29:03;;;;;;;;;;;;;;;;;;5324088;28;19903;-67
2021/12/31 05:31:34;;;;;;;;;;;;;;;;;;5324809;28;19904;-68
2021/12/31 05:34:05;;;;;;;;;;;;;;;;;;5323388;28;19947;-66
2021/12/31 05:36:36;;;;;;;;;;;;;;;;;;5324352;28;19907;-67
2021/12/31 05:39:07;;;;;;;;;;;;;;;;;;5323480;28;20354;-67
2021/12/31 05:41:39;;;;;;;;;;;;;;;;;;5324150;28;19943;-68
2021/12/31 05:44:11;;;;;;;;;;;;;;;;;;5324867;28;19911;-68
2021/12/31 05:46:45;;;;;;;;;;;;;;;;;;5323221;28;19911;-68
2021/12/31 05:49:16;;;;;;;;;;;;;;;;;;5324331;28;19915;-67
2021/12/31 05:51:47;;;;;;;;;;;;;;;;;;5324135;28;19904;-67
2021/12/31 05:54:18;;;;;;;;;;;;;;;;;;5323912;28;19942;-67
2021/12/31 05:56:50;;;;;;;;;;;;;;;;;;5323785;28;19915;-67
2021/12/31 05:59:21;;;;;;;;;;;;;;;;;;5324432;28;20282;-67
2021/12/31 06:01:52;;;;;;;;;;;;;;;;;;5323405;28;19907;-67
2021/12/31 06:04:23;;;;;;;;;;;;;;;;;;5328890;28;19904;-67
2021/12/31 06:06:54;;;;;;;;;;;;;;;;;;5328240;28;20266;-67
2021/12/31 06:09:25;;;;;;;;;;;;;;;;;;5327869;28;19908;-67
2021/12/31 06:11:56;;;;;;;;;;;;;;;;;;5327904;28;20003;-67
2021/12/31 06:14:29;;;;;;;;;;;;;;;;;;5327694;28;19926;-67
2021/12/31 06:17:06;;;;;;;;;;;;;;;;;;5328130;28;20287;-67
2021/12/31 06:19:38;;;;;;;;;;;;;;;;;;5327850;27;20397;-68
2021/12/31 06:22:09;;;;;;;;;;;;;;;;;;5327592;28;19919;-67
2021/12/31 06:24:41;;;;;;;;;;;;;;;;;;5327506;28;19908;-66
2021/12/31 06:27:12;;;;;;;;;;;;;;;;;;5328560;28;19904;-67
2021/12/31 06:29:43;;;;;;;;;;;;;;;;;;5326717;28;19994;-67
2021/12/31 06:32:14;;;;;;;;;;;;;;;;;;5328299;28;19904;-67
2021/12/31 06:34:45;;;;;;;;;;;;;;;;;;5327516;28;19930;-66
2021/12/31 06:37:16;;;;;;;;;;;;;;;;;;5327255;28;19908;-67
2021/12/31 06:39:47;;;;;;;;;;;;;;;;;;5327625;28;19908;-67
2021/12/31 06:42:19;;;;;;;;;;;;;;;;;;5328185;28;20243;-67
2021/12/31 06:44:50;;;;;;;;;;;;;;;;;;5326598;28;19912;-68
2021/12/31 06:47:21;;;;;;;;;;;;;;;;;;5327714;28;19904;-67
2021/12/31 06:49:52;;;;;;;;;;;;;;;;;;5326458;28;20397;-67
2021/12/31 06:52:23;;;;;;;;;;;;;;;;;;5327873;28;19911;-68
2021/12/31 06:54:54;;;;;;;;;;;;;;;;;;5327161;28;20406;-68
2021/12/31 06:57:25;;;;;;;;;;;;;;;;;;5326881;28;19912;-68
2021/12/31 06:59:56;;;;;;;;;;;;;;;;;;5327038;28;19914;-67
2021/12/31 07:02:27;;;;;;;;;;;;;;;;;;5327785;28;20044;-67
2021/12/31 07:04:58;;;;;;;;;;;;;;;;;;5326389;28;19911;-67
2021/12/31 07:07:29;;;;;;;;;;;;;;;;;;5327375;28;19930;-66
2021/12/31 07:10:00;;;;;;;;;;;;;;;;;;5326825;28;20358;-67
2021/12/31 07:12:32;;;;;;;;;;;;;;;;;;5326278;28;19948;-67
2021/12/31 07:15:03;;;;;;;;;;;;;;;;;;5326585;28;19904;-66
2021/12/31 07:17:34;;;;;;;;;;;;;;;;;;5326183;28;20413;-67
2021/12/31 07:20:05;;;;;;;;;;;;;;;;;;5326506;28;19904;-67
2021/12/31 07:22:37;;;;;;;;;;;;;;;;;;5326836;28;19908;-67
2021/12/31 07:25:08;;;;;;;;;;;;;;;;;;5326209;28;20024;-68
2021/12/31 07:27:40;;;;;;;;;;;;;;;;;;5326410;28;19958;-67
2021/12/31 07:30:12;;;;;;;;;;;;;;;;;;5327074;28;19903;-67
2021/12/31 07:32:43;;;;;;;;;;;;;;;;;;5325638;28;20418;-67
2021/12/31 07:35:14;;;;;;;;;;;;;;;;;;5326769;28;19994;-67
2021/12/31 07:37:45;;;;;;;;;;;;;;;;;;5326154;28;20075;-68
2021/12/31 07:40:25;;;;;;;;;;;;;;;;;;5326136;28;19904;-67
2021/12/31 07:42:56;;;;;;;;;;;;;;;;;;5326131;28;19928;-67
2021/12/31 07:45:27;;;;;;;;;;;;;;;;;;5319269;28;19908;-66
2021/12/31 07:47:58;;;;;;;;;;;;;;;;;;5324693;28;20002;-67
2021/12/31 07:50:29;;;;;;;;;;;;;;;;;;5326294;28;19907;-66
2021/12/31 07:53:00;;;;;;;;;;;;;;;;;;5325109;28;20278;-67
2021/12/31 07:55:31;;;;;;;;;;;;;;;;;;5326508;28;20002;-67
2021/12/31 07:58:02;;;;;;;;;;;;;;;;;;5325784;28;19912;-67
2021/12/31 08:00:33;;;;;;;;;;;;;;;;;;5325487;28;19911;-68
2021/12/31 08:03:04;;;;;;;;;;;;;;;;;;5325687;28;19904;-66
2021/12/31 08:05:35;;;;;;;;;;;;;;;;;;5326270;28;19904;-67
2021/12/31 08:08:07;;;;;;;;;;;;;;;;;;5324925;28;19904;-67
2021/12/31 08:10:38;;;;;;;;;;;;;;;;;;5325418;28;19904;-67
2021/12/31 08:13:09;;;;;;;;;;;;;;;;;;5325875;28;20199;-67
2021/12/31 08:15:40;;;;;;;;;;;;;;;;;;5322542;28;19906;-67
2021/12/31 08:18:11;;;;;;;;;;;;;;;;;;5324914;28;20318;-67
2021/12/31 08:20:43;;;;;;;;;;;;;;;;;;5324099;28;19904;-67
2021/12/31 08:23:14;;;;;;;;;;;;;;;;;;5323853;28;20326;-67
2021/12/31 08:25:45;;;;;;;;;;;;;;;;;;5323274;28;19911;-68
2021/12/31 08:28:16;;;;;;;;;;;;;;;;;;5323545;28;19903;-68
2021/12/31 08:30:47;;;;;;;;;;;;;;;;;;5323889;28;19910;-68
2021/12/31 08:33:18;;;;;;;;;;;;;;;;;;5324513;28;19903;-68
2021/12/31 08:35:49;;;;;;;;;;;;;;;;;;5323087;28;19915;-68
2021/12/31 08:38:20;;;;;;;;;;;;;;;;;;5324558;28;20251;-68
2021/12/31 08:40:51;;;;;;;;;;;;;;;;;;5323568;28;19950;-68
2021/12/31 08:43:22;;;;;;;;;;;;;;;;;;5323510;28;19904;-67
2021/12/31 08:45:53;;;;;;;;;;;;;;;;;;5323652;28;20279;-67
2021/12/31 08:48:25;;;;;;;;;;;;;;;;;;5323946;28;19922;-67
2021/12/31 08:50:56;;;;;;;;;;;;;;;;;;5322927;28;19915;-67
2021/12/31 08:53:27;;;;;;;;;;;;;;;;;;5323620;28;20007;-67
2021/12/31 08:55:58;;;;;;;;;;;;;;;;;;5323441;28;19910;-68
2021/12/31 08:58:29;;;;;;;;;;;;;;;;;;5323249;28;20133;-67
2021/12/31 09:01:00;;;;;;;;;;;;;;;;;;5323312;28;19903;-67
2021/12/31 09:03:31;;;;;;;;;;;;;;;;;;5323030;28;19904;-68
2021/12/31 09:06:02;;;;;;;;;;;;;;;;;;5322894;28;19904;-68
2021/12/31 09:08:33;;;;;;;;;;;;;;;;;;5323874;28;19982;-68
2021/12/31 09:11:04;;;;;;;;;;;;;;;;;;5322510;28;19903;-68
2021/12/31 09:13:35;;;;;;;;;;;;;;;;;;5323665;28;19904;-68
2021/12/31 09:16:06;;;;;;;;;;;;;;;;;;5323305;28;20378;-68
2021/12/31 09:18:38;;;;;;;;;;;;;;;;;;5323476;28;20014;-70
2021/12/31 09:21:09;;;;;;;;;;;;;;;;;;5324547;28;20339;-68
2021/12/31 09:23:40;;;;;;;;;;;;;;;;;;5324026;28;19907;-68
2021/12/31 09:26:11;;;;;;;;;;;;;;;;;;5322973;28;20004;-68
2021/12/31 09:28:42;;;;;;;;;;;;;;;;;;5323333;28;20303;-69
2021/12/31 09:31:13;;;;;;;;;;;;;;;;;;5324036;28;19904;-68
2021/12/31 09:33:44;;;;;;;;;;;;;;;;;;5323960;28;19911;-68
2021/12/31 09:36:15;;;;;;;;;;;;;;;;;;5324613;28;19911;-68
2021/12/31 09:38:46;;;;;;;;;;;;;;;;;;5323373;28;19916;-69
2021/12/31 09:41:17;;;;;;;;;;;;;;;;;;5324688;28;19990;-68
2021/12/31 09:43:49;;;;;;;;;;;;;;;;;;5323723;28;20278;-69
2021/12/31 09:46:22;;;;;;;;;;;;;;;;;;5323430;28;19904;-70
2021/12/31 09:48:53;;;;;;;;;;;;;;;;;;5323486;28;20418;-68
2021/12/31 09:51:24;;;;;;;;;;;;;;;;;;5324522;28;20002;-68
2021/12/31 09:53:59;;;;;;;;;;;;;;;;;;5323049;28;19904;-68
2021/12/31 09:56:30;;;;;;;;;;;;;;;;;;5324259;28;19917;-68
2021/12/31 09:59:01;;;;;;;;;;;;;;;;;;5323540;28;20362;-67
2021/12/31 10:01:33;;;;;;;;;;;;;;;;;;5323493;28;19907;-68
2021/12/31 10:04:04;;;;;;;;;;;;;;;;;;5323768;28;19904;-67
2021/12/31 10:06:35;;;;;;;;;;;;;;;;;;5323590;28;19986;-67
2021/12/31 10:09:06;;;;;;;;;;;;;;;;;;5323604;28;19950;-67
2021/12/31 10:11:38;;;;;;;;;;;;;;;;;;5323392;28;19910;-67
2021/12/31 10:14:09;;;;;;;;;;;;;;;;;;5321472;28;20322;-68
2021/12/31 10:16:40;;;;;;;;;;;;;;;;;;5321733;28;19959;-68
2021/12/31 10:19:11;;;;;;;;;;;;;;;;;;5323765;28;19918;-67
2021/12/31 10:21:43;;;;;;;;;;;;;;;;;;5322705;28;19904;-67
2021/12/31 10:24:14;;;;;;;;;;;;;;;;;;5324093;28;19956;-66
2021/12/31 10:26:45;;;;;;;;;;;;;;;;;;5323503;28;19903;-67
2021/12/31 10:29:16;;;;;;;;;;;;;;;;;;5322668;28;20282;-67
2021/12/31 10:31:47;;;;;;;;;;;;;;;;;;5322961;28;19903;-68
2021/12/31 10:34:19;;;;;;;;;;;;;;;;;;5323735;28;19904;-68
2021/12/31 10:36:50;;;;;;;;;;;;;;;;;;5322223;28;20427;-67
2021/12/31 10:39:21;;;;;;;;;;;;;;;;;;5323812;28;19919;-67
2021/12/31 10:41:52;;;;;;;;;;;;;;;;;;5322114;28;19904;-70
2021/12/31 10:44:23;;;;;;;;;;;;;;;;;;5323673;28;20287;-66
2021/12/31 10:46:54;;;;;;;;;;;;;;;;;;5323374;28;19904;-67
2021/12/31 10:49:25;;;;;;;;;;;;;;;;;;5325637;28;19916;-67
2021/12/31 10:51:57;;;;;;;;;;;;;;;;;;5327264;28;19908;-67
2021/12/31 10:54:46;;;;;;;;;;;;;;;;;;5327888;27;20371;-68
2021/12/31 10:57:18;;;;;;;;;;;;;;;;;;5326780;28;19998;-67
2021/12/31 10:59:49;;;;;;;;;;;;;;;;;;5326868;28;20010;-67
2021/12/31 11:02:20;;;;;;;;;;;;;;;;;;5327681;28;19907;-67
2021/12/31 11:04:51;;;;;;;;;;;;;;;;;;5326179;28;19927;-67
2021/12/31 11:07:22;;;;;;;;;;;;;;;;;;5327414;28;19904;-68
2021/12/31 11:09:53;;;;;;;;;;;;;;;;;;5325993;28;19904;-67
2021/12/31 11:12:24;;;;;;;;;;;;;;;;;;5327017;28;20350;-67
2021/12/31 11:14:55;;;;;;;;;;;;;;;;;;5326631;28;19990;-68
2021/12/31 11:17:26;;;;;;;;;;;;;;;;;;5324550;28;19904;-67
2021/12/31 11:19:58;;;;;;;;;;;;;;;;;;5326422;28;19904;-68
2021/12/31 11:22:29;;;;;;;;;;;;;;;;;;5326875;28;20014;-67
2021/12/31 11:25:00;;;;;;;;;;;;;;;;;;5325405;28;20007;-67
2021/12/31 11:27:31;;;;;;;;;;;;;;;;;;5326923;28;19998;-67
2021/12/31 11:30:02;;;;;;;;;;;;;;;;;;5326140;28;19904;-67
2021/12/31 11:32:33;;;;;;;;;;;;;;;;;;5326050;28;20006;-67
2021/12/31 11:35:04;;;;;;;;;;;;;;;;;;5326183;28;19911;-68
2021/12/31 11:37:35;;;;;;;;;;;;;;;;;;5326540;28;20339;-67
2021/12/31 11:40:06;;;;;;;;;;;;;;;;;;5325460;28;19957;-66
2021/12/31 11:42:37;;;;;;;;;;;;;;;;;;5326003;28;19992;-69
2021/12/31 11:45:12;;;;;;;;;;;;;;;;;;5325846;28;19923;-68
2021/12/31 11:47:43;;;;;;;;;;;;;;;;;;5325776;28;19903;-70
2021/12/31 11:50:14;;;;;;;;;;;;;;;;;;5326657;28;20325;-69
2021/12/31 11:52:45;;;;;;;;;;;;;;;;;;5325231;28;19911;-69
2021/12/31 11:55:16;;;;;;;;;;;;;;;;;;5326456;28;19998;-67
2021/12/31 11:57:47;;;;;;;;;;;;;;;;;;5325690;27;19916;-67
2021/12/31 12:00:18;;;;;;;;;;;;;;;;;;5324295;28;19904;-67
2021/12/31 12:02:49;;;;;;;;;;;;;;;;;;5325761;28;19910;-67
2021/12/31 12:05:22;;;;;;;;;;;;;;;;;;5326180;28;19957;-69
2021/12/31 12:07:54;;;;;;;;;;;;;;;;;;5324961;28;20326;-67
2021/12/31 12:10:26;;;;;;;;;;;;;;;;;;5326083;28;19911;-67
2021/12/31 12:12:57;;;;;;;;;;;;;;;;;;5325126;28;19975;-67
2021/12/31 12:15:29;;;;;;;;;;;;;;;;;;5326009;28;19938;-67
2021/12/31 12:18:00;;;;;;;;;;;;;;;;;;5325520;28;19939;-68
2021/12/31 12:20:31;;;;;;;;;;;;;;;;;;5325089;28;19954;-68
2021/12/31 12:23:02;;;;;;;;;;;;;;;;;;5325332;28;19926;-68
2021/12/31 12:25:34;;;;;;;;;;;;;;;;;;5325739;28;19946;-67
2021/12/31 12:28:07;;;;;;;;;;;;;;;;;;5324406;28;19903;-67
2021/12/31 12:30:42;;;;;;;;;;;;;;;;;;5325166;28;20055;-67
2021/12/31 12:35:45;;;;;;;;;;;;;;;;;;5324128;28;19904;-68
2021/12/31 12:38:19;;;;;;;;;;;;;;;;;;5325121;28;19912;-68
2021/12/31 12:40:50;;;;;;;;;;;;;;;;;;5324829;28;19907;-68
2021/12/31 12:43:21;;;;;;;;;;;;;;;;;;5324451;28;19904;-68
2021/12/31 12:45:53;;;;;;;;;;;;;;;;;;5324397;28;19931;-68
2021/12/31 12:48:24;;;;;;;;;;;;;;;;;;5324274;28;19927;-67
2021/12/31 12:50:57;;;;;;;;;;;;;;;;;;5310967;28;19907;-68
2021/12/31 12:53:28;;;;;;;;;;;;;;;;;;5305918;28;19998;-67
2021/12/31 12:55:59;;;;;;;;;;;;;;;;;;5301447;28;20015;-68
2021/12/31 12:58:31;;;;;;;;;;;;;;;;;;5303462;28;19974;-68
2021/12/31 13:01:03;;;;;;;;;;;;;;;;;;5303185;28;19911;-67
2021/12/31 13:03:34;;;;;;;;;;;;;;;;;;5303253;28;19986;-68
2021/12/31 13:06:05;;;;;;;;;;;;;;;;;;5303175;28;19999;-68
2021/12/31 13:08:37;;;;;;;;;;;;;;;;;;5303305;28;19907;-68
2021/12/31 13:11:08;;;;;;;;;;;;;;;;;;5302293;28;20394;-67
2021/12/31 13:13:39;;;;;;;;;;;;;;;;;;5303191;28;19989;-68
2021/12/31 13:16:10;;;;;;;;;;;;;;;;;;5303677;28;20271;-69
2021/12/31 13:18:41;;;;;;;;;;;;;;;;;;5302237;28;19919;-68
2021/12/31 13:21:15;;;;;;;;;;;;;;;;;;5303377;28;19904;-68
2021/12/31 13:23:46;;;;;;;;;;;;;;;;;;5301776;28;19904;-68
2021/12/31 13:26:17;;;;;;;;;;;;;;;;;;5303357;28;20036;-68
2021/12/31 13:28:48;;;;;;;;;;;;;;;;;;5302646;28;19911;-68
2021/12/31 13:31:19;;;;;;;;;;;;;;;;;;5302495;28;20377;-69
2021/12/31 13:33:50;;;;;;;;;;;;;;;;;;5302565;28;19904;-68
2021/12/31 13:36:21;;;;;;;;;;;;;;;;;;5303411;28;19904;-69
2021/12/31 13:38:52;;;;;;;;;;;;;;;;;;5302091;28;19912;-69
2021/12/31 13:41:24;;;;;;;;;;;;;;;;;;5303365;28;19998;-69
2021/12/31 13:43:55;;;;;;;;;;;;;;;;;;5302670;28;19904;-69
2021/12/31 13:46:26;;;;;;;;;;;;;;;;;;5302399;28;20271;-68
2021/12/31 13:48:57;;;;;;;;;;;;;;;;;;5302316;28;20281;-68
2021/12/31 13:51:28;;;;;;;;;;;;;;;;;;5302575;28;19911;-69
2021/12/31 13:53:59;;;;;;;;;;;;;;;;;;5302619;28;19957;-69
2021/12/31 13:56:31;;;;;;;;;;;;;;;;;;5303127;28;20383;-68
2021/12/31 13:59:02;;;;;;;;;;;;;;;;;;5301561;28;19912;-69
2021/12/31 14:01:33;;;;;;;;;;;;;;;;;;5303152;28;19904;-68
2021/12/31 14:04:04;;;;;;;;;;;;;;;;;;5302546;28;19904;-68
2021/12/31 14:06:35;;;;;;;;;;;;;;;;;;5302282;28;20392;-68
2021/12/31 14:09:07;;;;;;;;;;;;;;;;;;5302391;28;19927;-68
2021/12/31 14:11:38;;;;;;;;;;;;;;;;;;5302596;28;20371;-69
2021/12/31 14:14:09;;;;;;;;;;;;;;;;;;5302359;28;19904;-69
2021/12/31 14:16:40;;;;;;;;;;;;;;;;;;5302523;28;19915;-69
2021/12/31 14:19:11;;;;;;;;;;;;;;;;;;5302837;28;19912;-69
2021/12/31 14:21:42;;;;;;;;;;;;;;;;;;5301265;28;19911;-69
2021/12/31 14:24:13;;;;;;;;;;;;;;;;;;5305468;28;20017;-68
2021/12/31 14:26:44;;;;;;;;;;;;;;;;;;5305830;28;19911;-69
2021/12/31 14:29:17;;;;;;;;;;;;;;;;;;5306761;28;19962;-68
2021/12/31 14:31:49;;;;;;;;;;;;;;;;;;5306362;28;20335;-69
2021/12/31 14:34:23;;;;;;;;;;;;;;;;;;5306028;28;19916;-69
2021/12/31 14:36:54;;;;;;;;;;;;;;;;;;5306113;28;19910;-69
2021/12/31 14:39:25;;;;;;;;;;;;;;;;;;5306420;28;19912;-68
2021/12/31 14:41:56;;;;;;;;;;;;;;;;;;5305367;28;19908;-69
2021/12/31 14:44:27;;;;;;;;;;;;;;;;;;5306667;28;19904;-69
2021/12/31 14:47:00;;;;;;;;;;;;;;;;;;5302910;28;19912;-68
2021/12/31 14:49:35;;;;;;;;;;;;;;;;;;5324831;28;19916;-68
2021/12/31 14:52:06;;;;;;;;;;;;;;;;;;5325512;28;20474;-68
2021/12/31 14:54:37;;;;;;;;;;;;;;;;;;5326565;28;19994;-69
2021/12/31 14:57:10;;;;;;;;;;;;;;;;;;5314009;28;19919;-68
2021/12/31 14:59:41;;;;;;;;;;;;;;;;;;5304802;28;19957;-69
2021/12/31 15:02:12;;;;;;;;;;;;;;;;;;5305178;28;20354;-68
2021/12/31 15:04:43;;;;;;;;;;;;;;;;;;5320961;28;19994;-68
2021/12/31 15:07:15;;;;;;;;;;;;;;;;;;5318020;28;19907;-68
2021/12/31 15:09:47;;;;;;;;;;;;;;;;;;5315066;28;19904;-68
2021/12/31 15:12:18;;;;;;;;;;;;;;;;;;5325776;28;19926;-68
2021/12/31 15:14:49;;;;;;;;;;;;;;;;;;5325589;28;20286;-68
2021/12/31 15:17:20;;;;;;;;;;;;;;;;;;5318025;28;20049;-68
2021/12/31 15:19:51;;;;;;;;;;;;;;;;;;5324573;28;19923;-68
2021/12/31 15:22:22;;;;;;;;;;;;;;;;;;5325536;28;19904;-68
2021/12/31 15:24:53;;;;;;;;;;;;;;;;;;5323874;28;19904;-69
2021/12/31 15:27:24;;;;;;;;;;;;;;;;;;5325287;28;19911;-68
2021/12/31 15:29:55;;;;;;;;;;;;;;;;;;5324069;28;19915;-69
2021/12/31 15:32:26;;;;;;;;;;;;;;;;;;5325851;28;20373;-68
2021/12/31 15:34:58;;;;;;;;;;;;;;;;;;5325029;28;20312;-68
2021/12/31 15:37:29;;;;;;;;;;;;;;;;;;5324879;28;20282;-68
2021/12/31 15:40:00;;;;;;;;;;;;;;;;;;5325086;28;19923;-68
2021/12/31 15:42:31;;;;;;;;;;;;;;;;;;5325683;28;19904;-67
2021/12/31 15:45:02;;;;;;;;;;;;;;;;;;5324168;28;19942;-68
2021/12/31 15:47:33;;;;;;;;;;;;;;;;;;5325134;28;19908;-67
2021/12/31 15:50:05;;;;;;;;;;;;;;;;;;5324798;28;20270;-67
2021/12/31 15:52:36;;;;;;;;;;;;;;;;;;5324806;28;20295;-68
2021/12/31 15:55:07;;;;;;;;;;;;;;;;;;5325360;28;19904;-67
2021/12/31 15:57:38;;;;;;;;;;;;;;;;;;5324847;28;20002;-69
2021/12/31 16:00:09;;;;;;;;;;;;;;;;;;5324920;28;19911;-68
2021/12/31 16:02:40;;;;;;;;;;;;;;;;;;5324691;28;19908;-68
2021/12/31 16:05:15;;;;;;;;;;;;;;;;;;5324981;28;19910;-68
2021/12/31 16:07:46;;;;;;;;;;;;;;;;;;5325655;28;20266;-69
2021/12/31 16:10:17;;;;;;;;;;;;;;;;;;5325983;28;19907;-68
2021/12/31 16:12:48;;;;;;;;;;;;;;;;;;5324654;28;20323;-68
2021/12/31 16:15:20;;;;;;;;;;;;;;;;;;5326073;28;19907;-68
2021/12/31 16:17:51;;;;;;;;;;;;;;;;;;5325433;28;19911;-69
2021/12/31 16:20:22;;;;;;;;;;;;;;;;;;5325102;28;19904;-69
2021/12/31 16:22:53;;;;;;;;;;;;;;;;;;5325367;28;19957;-68
2021/12/31 16:25:24;;;;;;;;;;;;;;;;;;5325572;28;19998;-70
2021/12/31 16:27:55;;;;;;;;;;;;;;;;;;5324273;28;19904;-68
2021/12/31 16:30:26;;;;;;;;;;;;;;;;;;5325670;28;19910;-68
2021/12/31 16:32:57;;;;;;;;;;;;;;;;;;5324811;28;19960;-68
2021/12/31 16:35:28;;;;;;;;;;;;;;;;;;5325261;28;19903;-68
2021/12/31 16:37:59;;;;;;;;;;;;;;;;;;5324938;28;20014;-68
2021/12/31 16:40:32;;;;;;;;;;;;;;;;;;5324912;28;19907;-68
2021/12/31 16:43:03;;;;;;;;;;;;;;;;;;5325014;28;19904;-68
2021/12/31 16:45:34;;;;;;;;;;;;;;;;;;5324890;28;19903;-68
2021/12/31 16:48:06;;;;;;;;;;;;;;;;;;5323772;28;19964;-68
2021/12/31 16:50:37;;;;;;;;;;;;;;;;;;5323049;28;20274;-68
2021/12/31 16:53:08;;;;;;;;;;;;;;;;;;5324188;28;19903;-68
2021/12/31 16:55:39;;;;;;;;;;;;;;;;;;5322732;28;19904;-68
2021/12/31 16:58:10;;;;;;;;;;;;;;;;;;5323892;28;20369;-68
2021/12/31 17:00:41;;;;;;;;;;;;;;;;;;5323673;28;19908;-70
2021/12/31 17:03:12;;;;;;;;;;;;;;;;;;5322771;28;19959;-69
2021/12/31 17:05:43;;;;;;;;;;;;;;;;;;5323426;28;19927;-69
2021/12/31 17:08:15;;;;;;;;;;;;;;;;;;5323820;28;20350;-69
2021/12/31 17:10:46;;;;;;;;;;;;;;;;;;5322572;28;19904;-69
2021/12/31 17:13:17;;;;;;;;;;;;;;;;;;5323901;28;19925;-69
2021/12/31 17:15:50;;;;;;;;;;;;;;;;;;5321981;28;19904;-69
2021/12/31 17:18:21;;;;;;;;;;;;;;;;;;5323583;28;20274;-68